sensor_id;sensor_type;location;lat;lon;timestamp;temperature;humidity
65707;SHT31;52423;43.512;5.220;2022-09-01T00:02:13;24.36;54.31
65707;SHT31;52423;43.512;5.220;2022-09-01T00:04:41;24.45;54.07
65707;SHT31;52423;43.512;5.220;2022-09-01T00:07:07;24.39;54.09
65707;SHT31;52423;43.512;5.220;2022-09-01T00:09:34;24.42;54.26
65707;SHT31;52423;43.512;5.220;2022-09-01T00:12:01;24.39;54.32
65707;SHT31;52423;43.512;5.220;2022-09-01T00:14:31;24.35;54.50
65707;SHT31;52423;43.512;5.220;2022-09-01T00:17:03;24.35;54.31
65707;SHT31;52423;43.512;5.220;2022-09-01T00:19:29;24.30;54.46
65707;SHT31;52423;43.512;5.220;2022-09-01T00:21:58;24.26;54.74
65707;SHT31;52423;43.512;5.220;2022-09-01T00:24:25;24.26;54.53
65707;SHT31;52423;43.512;5.220;2022-09-01T00:26:51;24.23;54.76
65707;SHT31;52423;43.512;5.220;2022-09-01T00:29:16;24.25;54.68
65707;SHT31;52423;43.512;5.220;2022-09-01T00:31:42;24.18;55.09
65707;SHT31;52423;43.512;5.220;2022-09-01T00:34:08;24.12;55.34
65707;SHT31;52423;43.512;5.220;2022-09-01T00:36:34;24.14;55.03
65707;SHT31;52423;43.512;5.220;2022-09-01T00:39:00;24.14;55.19
65707;SHT31;52423;43.512;5.220;2022-09-01T00:41:29;24.12;55.41
65707;SHT31;52423;43.512;5.220;2022-09-01T00:44:04;24.11;55.33
65707;SHT31;52423;43.512;5.220;2022-09-01T00:46:33;24.11;55.04
65707;SHT31;52423;43.512;5.220;2022-09-01T00:49:30;24.12;55.09
65707;SHT31;52423;43.512;5.220;2022-09-01T00:52:04;24.06;55.90
65707;SHT31;52423;43.512;5.220;2022-09-01T00:54:34;24.05;55.33
65707;SHT31;52423;43.512;5.220;2022-09-01T00:57:02;24.04;55.17
65707;SHT31;52423;43.512;5.220;2022-09-01T00:59:29;24.04;55.19
65707;SHT31;52423;43.512;5.220;2022-09-01T01:01:55;23.95;56.18
65707;SHT31;52423;43.512;5.220;2022-09-01T01:04:22;23.94;55.97
65707;SHT31;52423;43.512;5.220;2022-09-01T01:06:52;23.82;56.29
65707;SHT31;52423;43.512;5.220;2022-09-01T01:09:24;23.84;56.19
65707;SHT31;52423;43.512;5.220;2022-09-01T01:11:50;23.82;55.99
65707;SHT31;52423;43.512;5.220;2022-09-01T01:14:16;23.82;55.75
65707;SHT31;52423;43.512;5.220;2022-09-01T01:16:46;23.79;55.82
65707;SHT31;52423;43.512;5.220;2022-09-01T01:22:28;23.68;56.93
65707;SHT31;52423;43.512;5.220;2022-09-01T01:25:15;23.68;57.12
65707;SHT31;52423;43.512;5.220;2022-09-01T01:27:44;23.67;57.08
65707;SHT31;52423;43.512;5.220;2022-09-01T01:30:11;23.54;57.27
65707;SHT31;52423;43.512;5.220;2022-09-01T01:32:38;23.53;57.13
65707;SHT31;52423;43.512;5.220;2022-09-01T01:35:09;23.49;57.32
65707;SHT31;52423;43.512;5.220;2022-09-01T01:37:38;23.36;57.68
65707;SHT31;52423;43.512;5.220;2022-09-01T01:40:04;23.40;57.85
65707;SHT31;52423;43.512;5.220;2022-09-01T01:42:32;23.33;58.06
65707;SHT31;52423;43.512;5.220;2022-09-01T01:44:57;23.28;57.93
65707;SHT31;52423;43.512;5.220;2022-09-01T01:47:23;23.23;58.06
65707;SHT31;52423;43.512;5.220;2022-09-01T01:49:49;23.20;58.87
65707;SHT31;52423;43.512;5.220;2022-09-01T01:52:17;23.12;59.03
65707;SHT31;52423;43.512;5.220;2022-09-01T01:54:45;23.14;58.01
65707;SHT31;52423;43.512;5.220;2022-09-01T01:57:12;23.24;57.60
65707;SHT31;52423;43.512;5.220;2022-09-01T01:59:41;23.19;58.02
65707;SHT31;52423;43.512;5.220;2022-09-01T02:02:06;23.14;58.01
65707;SHT31;52423;43.512;5.220;2022-09-01T02:04:34;23.07;58.70
65707;SHT31;52423;43.512;5.220;2022-09-01T02:07:00;23.03;59.35
65707;SHT31;52423;43.512;5.220;2022-09-01T02:09:25;22.92;59.06
65707;SHT31;52423;43.512;5.220;2022-09-01T02:11:51;23.06;58.00
65707;SHT31;52423;43.512;5.220;2022-09-01T02:14:22;23.12;57.78
65707;SHT31;52423;43.512;5.220;2022-09-01T02:16:48;23.12;57.85
65707;SHT31;52423;43.512;5.220;2022-09-01T02:19:14;23.16;57.51
65707;SHT31;52423;43.512;5.220;2022-09-01T02:21:44;23.19;57.43
65707;SHT31;52423;43.512;5.220;2022-09-01T02:24:13;23.19;57.35
65707;SHT31;52423;43.512;5.220;2022-09-01T02:26:42;23.06;57.87
65707;SHT31;52423;43.512;5.220;2022-09-01T02:29:13;23.00;58.16
65707;SHT31;52423;43.512;5.220;2022-09-01T02:31:45;23.07;57.96
65707;SHT31;52423;43.512;5.220;2022-09-01T02:34:11;23.09;58.22
65707;SHT31;52423;43.512;5.220;2022-09-01T02:36:56;23.05;58.38
65707;SHT31;52423;43.512;5.220;2022-09-01T02:39:26;22.86;59.44
65707;SHT31;52423;43.512;5.220;2022-09-01T02:41:53;22.82;59.17
65707;SHT31;52423;43.512;5.220;2022-09-01T02:44:19;22.85;59.39
65707;SHT31;52423;43.512;5.220;2022-09-01T02:46:47;22.71;60.19
65707;SHT31;52423;43.512;5.220;2022-09-01T02:49:17;22.59;59.99
65707;SHT31;52423;43.512;5.220;2022-09-01T02:51:46;22.59;59.98
65707;SHT31;52423;43.512;5.220;2022-09-01T02:54:13;22.66;60.77
65707;SHT31;52423;43.512;5.220;2022-09-01T02:56:42;22.64;61.15
65707;SHT31;52423;43.512;5.220;2022-09-01T02:59:17;22.65;60.32
65707;SHT31;52423;43.512;5.220;2022-09-01T03:01:46;22.61;60.70
65707;SHT31;52423;43.512;5.220;2022-09-01T03:04:13;22.58;60.63
65707;SHT31;52423;43.512;5.220;2022-09-01T03:06:39;22.35;60.92
65707;SHT31;52423;43.512;5.220;2022-09-01T03:09:07;22.03;62.47
65707;SHT31;52423;43.512;5.220;2022-09-01T03:11:36;22.11;62.28
65707;SHT31;52423;43.512;5.220;2022-09-01T03:14:02;21.90;62.87
65707;SHT31;52423;43.512;5.220;2022-09-01T03:16:28;21.89;62.96
65707;SHT31;52423;43.512;5.220;2022-09-01T03:18:58;21.98;62.97
65707;SHT31;52423;43.512;5.220;2022-09-01T03:21:24;21.97;63.08
65707;SHT31;52423;43.512;5.220;2022-09-01T03:23:51;21.74;63.43
65707;SHT31;52423;43.512;5.220;2022-09-01T03:26:20;21.72;63.52
65707;SHT31;52423;43.512;5.220;2022-09-01T03:28:48;21.67;63.16
65707;SHT31;52423;43.512;5.220;2022-09-01T03:31:14;21.55;63.71
65707;SHT31;52423;43.512;5.220;2022-09-01T03:33:40;21.41;64.38
65707;SHT31;52423;43.512;5.220;2022-09-01T03:36:07;21.32;64.52
65707;SHT31;52423;43.512;5.220;2022-09-01T03:38:33;21.38;64.90
65707;SHT31;52423;43.512;5.220;2022-09-01T03:41:03;21.38;64.55
65707;SHT31;52423;43.512;5.220;2022-09-01T03:43:31;21.19;65.23
65707;SHT31;52423;43.512;5.220;2022-09-01T03:45:58;21.21;65.12
65707;SHT31;52423;43.512;5.220;2022-09-01T03:48:28;21.06;65.65
65707;SHT31;52423;43.512;5.220;2022-09-01T03:50:57;21.01;65.99
65707;SHT31;52423;43.512;5.220;2022-09-01T03:53:29;21.26;65.16
65707;SHT31;52423;43.512;5.220;2022-09-01T03:55:55;21.22;65.43
65707;SHT31;52423;43.512;5.220;2022-09-01T03:58:23;21.22;65.10
65707;SHT31;52423;43.512;5.220;2022-09-01T04:00:53;21.08;65.55
65707;SHT31;52423;43.512;5.220;2022-09-01T04:03:25;21.04;65.53
65707;SHT31;52423;43.512;5.220;2022-09-01T04:05:53;20.88;66.12
65707;SHT31;52423;43.512;5.220;2022-09-01T04:08:20;20.84;66.09
65707;SHT31;52423;43.512;5.220;2022-09-01T04:10:48;20.81;67.27
65707;SHT31;52423;43.512;5.220;2022-09-01T04:13:23;20.88;66.18
65707;SHT31;52423;43.512;5.220;2022-09-01T04:15:49;20.83;66.00
65707;SHT31;52423;43.512;5.220;2022-09-01T04:18:15;20.90;65.93
65707;SHT31;52423;43.512;5.220;2022-09-01T04:20:50;20.96;65.83
65707;SHT31;52423;43.512;5.220;2022-09-01T04:23:18;20.94;65.77
65707;SHT31;52423;43.512;5.220;2022-09-01T04:25:54;20.98;65.89
65707;SHT31;52423;43.512;5.220;2022-09-01T04:28:22;20.90;66.08
65707;SHT31;52423;43.512;5.220;2022-09-01T04:30:50;20.77;67.08
65707;SHT31;52423;43.512;5.220;2022-09-01T04:33:18;20.63;67.14
65707;SHT31;52423;43.512;5.220;2022-09-01T04:35:43;20.44;67.72
65707;SHT31;52423;43.512;5.220;2022-09-01T04:38:09;20.33;68.15
65707;SHT31;52423;43.512;5.220;2022-09-01T04:40:39;20.37;68.21
65707;SHT31;52423;43.512;5.220;2022-09-01T04:43:05;20.34;68.35
65707;SHT31;52423;43.512;5.220;2022-09-01T04:45:34;20.16;68.78
65707;SHT31;52423;43.512;5.220;2022-09-01T04:48:04;20.12;69.37
65707;SHT31;52423;43.512;5.220;2022-09-01T04:50:30;20.16;68.51
65707;SHT31;52423;43.512;5.220;2022-09-01T04:52:58;20.22;67.99
65707;SHT31;52423;43.512;5.220;2022-09-01T04:55:28;20.22;68.28
65707;SHT31;52423;43.512;5.220;2022-09-01T04:57:56;20.29;68.16
65707;SHT31;52423;43.512;5.220;2022-09-01T05:00:23;20.27;67.99
65707;SHT31;52423;43.512;5.220;2022-09-01T05:02:53;20.36;67.72
65707;SHT31;52423;43.512;5.220;2022-09-01T05:05:21;20.47;67.35
65707;SHT31;52423;43.512;5.220;2022-09-01T05:07:48;20.44;67.39
65707;SHT31;52423;43.512;5.220;2022-09-01T05:10:21;20.34;68.09
65707;SHT31;52423;43.512;5.220;2022-09-01T05:12:50;20.22;68.29
65707;SHT31;52423;43.512;5.220;2022-09-01T05:15:17;20.24;68.17
65707;SHT31;52423;43.512;5.220;2022-09-01T05:17:43;20.13;68.90
65707;SHT31;52423;43.512;5.220;2022-09-01T05:20:10;20.43;67.92
65707;SHT31;52423;43.512;5.220;2022-09-01T05:22:36;20.34;68.20
65707;SHT31;52423;43.512;5.220;2022-09-01T05:25:07;20.43;68.07
65707;SHT31;52423;43.512;5.220;2022-09-01T05:27:43;20.29;68.48
65707;SHT31;52423;43.512;5.220;2022-09-01T05:30:17;20.39;68.19
65707;SHT31;52423;43.512;5.220;2022-09-01T05:32:43;20.44;68.17
65707;SHT31;52423;43.512;5.220;2022-09-01T05:35:11;20.36;68.66
65707;SHT31;52423;43.512;5.220;2022-09-01T05:37:37;20.68;67.76
65707;SHT31;52423;43.512;5.220;2022-09-01T05:40:05;20.78;67.33
65707;SHT31;52423;43.512;5.220;2022-09-01T05:42:31;20.78;67.15
65707;SHT31;52423;43.512;5.220;2022-09-01T05:44:57;20.92;66.56
65707;SHT31;52423;43.512;5.220;2022-09-01T05:47:22;21.06;65.97
65707;SHT31;52423;43.512;5.220;2022-09-01T05:49:50;21.16;66.00
65707;SHT31;52423;43.512;5.220;2022-09-01T05:52:18;21.22;65.80
65707;SHT31;52423;43.512;5.220;2022-09-01T05:54:47;21.35;64.82
65707;SHT31;52423;43.512;5.220;2022-09-01T05:57:13;21.31;65.25
65707;SHT31;52423;43.512;5.220;2022-09-01T05:59:39;21.49;64.25
65707;SHT31;52423;43.512;5.220;2022-09-01T06:02:06;21.50;64.31
65707;SHT31;52423;43.512;5.220;2022-09-01T06:04:33;21.49;64.60
65707;SHT31;52423;43.512;5.220;2022-09-01T06:07:00;21.59;64.22
65707;SHT31;52423;43.512;5.220;2022-09-01T06:09:26;21.62;64.33
65707;SHT31;52423;43.512;5.220;2022-09-01T06:11:51;21.67;63.81
65707;SHT31;52423;43.512;5.220;2022-09-01T06:14:19;21.90;62.43
65707;SHT31;52423;43.512;5.220;2022-09-01T06:16:45;22.04;62.11
65707;SHT31;52423;43.512;5.220;2022-09-01T06:19:11;22.18;61.28
65707;SHT31;52423;43.512;5.220;2022-09-01T06:21:38;22.25;61.39
65707;SHT31;52423;43.512;5.220;2022-09-01T06:24:03;22.33;61.11
65707;SHT31;52423;43.512;5.220;2022-09-01T06:26:34;22.40;60.72
65707;SHT31;52423;43.512;5.220;2022-09-01T06:29:03;22.47;61.36
65707;SHT31;52423;43.512;5.220;2022-09-01T06:31:32;22.62;59.99
65707;SHT31;52423;43.512;5.220;2022-09-01T06:34:01;22.72;59.43
65707;SHT31;52423;43.512;5.220;2022-09-01T06:36:29;22.71;59.84
65707;SHT31;52423;43.512;5.220;2022-09-01T06:38:57;22.77;59.21
65707;SHT31;52423;43.512;5.220;2022-09-01T06:41:26;22.82;59.19
65707;SHT31;52423;43.512;5.220;2022-09-01T06:43:53;22.88;59.05
65707;SHT31;52423;43.512;5.220;2022-09-01T06:46:20;22.95;58.72
65707;SHT31;52423;43.512;5.220;2022-09-01T06:48:46;22.96;58.62
65707;SHT31;52423;43.512;5.220;2022-09-01T06:51:20;23.02;58.59
65707;SHT31;52423;43.512;5.220;2022-09-01T06:53:48;23.00;58.47
65707;SHT31;52423;43.512;5.220;2022-09-01T06:56:22;23.05;58.60
65707;SHT31;52423;43.512;5.220;2022-09-01T06:58:51;23.10;58.45
65707;SHT31;52423;43.512;5.220;2022-09-01T07:01:19;23.12;58.21
65707;SHT31;52423;43.512;5.220;2022-09-01T07:03:48;23.19;58.21
65707;SHT31;52423;43.512;5.220;2022-09-01T07:06:16;23.28;57.82
65707;SHT31;52423;43.512;5.220;2022-09-01T07:08:42;23.30;57.89
65707;SHT31;52423;43.512;5.220;2022-09-01T07:11:19;23.40;58.21
65707;SHT31;52423;43.512;5.220;2022-09-01T07:13:54;23.51;57.53
65707;SHT31;52423;43.512;5.220;2022-09-01T07:16:21;23.58;57.74
65707;SHT31;52423;43.512;5.220;2022-09-01T07:18:54;23.70;57.58
65707;SHT31;52423;43.512;5.220;2022-09-01T07:21:23;23.75;56.78
65707;SHT31;52423;43.512;5.220;2022-09-01T07:23:49;23.79;56.22
65707;SHT31;52423;43.512;5.220;2022-09-01T07:26:16;23.81;56.83
65707;SHT31;52423;43.512;5.220;2022-09-01T07:28:48;24.05;55.80
65707;SHT31;52423;43.512;5.220;2022-09-01T07:31:41;24.11;56.01
65707;SHT31;52423;43.512;5.220;2022-09-01T07:34:10;24.21;55.55
65707;SHT31;52423;43.512;5.220;2022-09-01T07:36:38;24.32;55.30
65707;SHT31;52423;43.512;5.220;2022-09-01T07:39:05;24.35;54.31
65707;SHT31;52423;43.512;5.220;2022-09-01T07:41:31;24.45;54.54
65707;SHT31;52423;43.512;5.220;2022-09-01T07:44:00;24.56;53.95
65707;SHT31;52423;43.512;5.220;2022-09-01T07:46:28;24.73;53.96
65707;SHT31;52423;43.512;5.220;2022-09-01T07:48:56;24.86;53.09
65707;SHT31;52423;43.512;5.220;2022-09-01T07:51:24;24.97;52.56
65707;SHT31;52423;43.512;5.220;2022-09-01T07:53:51;25.06;51.33
65707;SHT31;52423;43.512;5.220;2022-09-01T07:56:19;25.07;51.60
65707;SHT31;52423;43.512;5.220;2022-09-01T07:58:47;25.21;51.16
65707;SHT31;52423;43.512;5.220;2022-09-01T08:01:16;25.20;50.63
65707;SHT31;52423;43.512;5.220;2022-09-01T08:03:48;25.23;50.83
65707;SHT31;52423;43.512;5.220;2022-09-01T08:06:16;25.18;51.27
65707;SHT31;52423;43.512;5.220;2022-09-01T08:08:47;25.23;51.54
65707;SHT31;52423;43.512;5.220;2022-09-01T08:11:22;25.24;51.29
65707;SHT31;52423;43.512;5.220;2022-09-01T08:13:51;25.44;50.99
65707;SHT31;52423;43.512;5.220;2022-09-01T08:16:16;25.46;50.24
65707;SHT31;52423;43.512;5.220;2022-09-01T08:18:42;25.58;50.11
65707;SHT31;52423;43.512;5.220;2022-09-01T08:21:10;25.59;50.45
65707;SHT31;52423;43.512;5.220;2022-09-01T08:23:36;25.73;49.80
65707;SHT31;52423;43.512;5.220;2022-09-01T08:26:07;25.79;49.18
65707;SHT31;52423;43.512;5.220;2022-09-01T08:28:34;25.85;49.12
65707;SHT31;52423;43.512;5.220;2022-09-01T08:31:05;26.02;48.80
65707;SHT31;52423;43.512;5.220;2022-09-01T08:33:30;26.10;47.91
65707;SHT31;52423;43.512;5.220;2022-09-01T08:35:59;26.10;48.57
65707;SHT31;52423;43.512;5.220;2022-09-01T08:38:25;26.37;47.96
65707;SHT31;52423;43.512;5.220;2022-09-01T08:40:55;26.48;47.41
65707;SHT31;52423;43.512;5.220;2022-09-01T08:45:54;26.64;45.85
65707;SHT31;52423;43.512;5.220;2022-09-01T08:48:38;26.87;45.31
65707;SHT31;52423;43.512;5.220;2022-09-01T08:56:40;27.21;42.83
65707;SHT31;52423;43.512;5.220;2022-09-01T08:59:08;27.39;42.05
65707;SHT31;52423;43.512;5.220;2022-09-01T09:07:12;27.66;42.66
65707;SHT31;52423;43.512;5.220;2022-09-01T09:09:46;27.87;40.21
65707;SHT31;52423;43.512;5.220;2022-09-01T09:18:00;28.14;40.05
65707;SHT31;52423;43.512;5.220;2022-09-01T09:20:30;28.38;40.25
65707;SHT31;52423;43.512;5.220;2022-09-01T09:22:56;28.47;38.96
65707;SHT31;52423;43.512;5.220;2022-09-01T09:25:22;28.41;40.33
65707;SHT31;52423;43.512;5.220;2022-09-01T09:27:49;28.59;40.47
65707;SHT31;52423;43.512;5.220;2022-09-01T09:30:24;28.61;39.26
65707;SHT31;52423;43.512;5.220;2022-09-01T09:35:42;28.63;40.24
65707;SHT31;52423;43.512;5.220;2022-09-01T09:41:07;29.06;38.10
65707;SHT31;52423;43.512;5.220;2022-09-01T09:43:36;29.24;37.88
65707;SHT31;52423;43.512;5.220;2022-09-01T09:51:43;28.78;39.51
65707;SHT31;52423;43.512;5.220;2022-09-01T09:54:24;28.92;39.36
65707;SHT31;52423;43.512;5.220;2022-09-01T09:59:46;29.20;38.58
65707;SHT31;52423;43.512;5.220;2022-09-01T10:02:32;29.27;38.71
65707;SHT31;52423;43.512;5.220;2022-09-01T10:07:49;29.00;39.27
65707;SHT31;52423;43.512;5.220;2022-09-01T10:10:37;29.26;39.04
65707;SHT31;52423;43.512;5.220;2022-09-01T10:13:04;29.44;38.04
65707;SHT31;52423;43.512;5.220;2022-09-01T10:15:32;29.57;37.63
65707;SHT31;52423;43.512;5.220;2022-09-01T10:18:08;29.58;38.14
65707;SHT31;52423;43.512;5.220;2022-09-01T10:20:43;29.63;36.84
65707;SHT31;52423;43.512;5.220;2022-09-01T10:23:10;29.65;36.57
65707;SHT31;52423;43.512;5.220;2022-09-01T10:25:36;29.70;37.15
65707;SHT31;52423;43.512;5.220;2022-09-01T10:30:29;29.97;36.69
65707;SHT31;52423;43.512;5.220;2022-09-01T10:32:58;30.12;36.72
65707;SHT31;52423;43.512;5.220;2022-09-01T10:35:31;30.25;35.87
65707;SHT31;52423;43.512;5.220;2022-09-01T10:38:05;30.23;37.16
65707;SHT31;52423;43.512;5.220;2022-09-01T10:45:50;30.46;36.01
65707;SHT31;52423;43.512;5.220;2022-09-01T10:48:28;30.43;36.64
65707;SHT31;52423;43.512;5.220;2022-09-01T10:53:41;30.08;35.23
65707;SHT31;52423;43.512;5.220;2022-09-01T10:56:48;30.06;35.74
65707;SHT31;52423;43.512;5.220;2022-09-01T10:59:24;29.89;35.32
65707;SHT31;52423;43.512;5.220;2022-09-01T11:02:02;29.94;35.04
65707;SHT31;52423;43.512;5.220;2022-09-01T11:07:03;30.43;34.59
65707;SHT31;52423;43.512;5.220;2022-09-01T11:22:57;30.53;35.00
65707;SHT31;52423;43.512;5.220;2022-09-01T11:31:02;30.70;34.29
65707;SHT31;52423;43.512;5.220;2022-09-01T11:41:55;30.46;36.73
65707;SHT31;52423;43.512;5.220;2022-09-01T11:47:26;30.67;35.01
65707;SHT31;52423;43.512;5.220;2022-09-01T11:49:56;30.55;35.06
65707;SHT31;52423;43.512;5.220;2022-09-01T11:52:27;30.76;35.46
65707;SHT31;52423;43.512;5.220;2022-09-01T11:54:54;31.04;34.69
65707;SHT31;52423;43.512;5.220;2022-09-01T11:57:37;30.69;35.18
65707;SHT31;52423;43.512;5.220;2022-09-01T12:00:09;30.74;34.10
65707;SHT31;52423;43.512;5.220;2022-09-01T12:02:46;30.91;33.15
65707;SHT31;52423;43.512;5.220;2022-09-01T12:05:41;30.91;33.44
65707;SHT31;52423;43.512;5.220;2022-09-01T12:08:12;31.01;33.06
65707;SHT31;52423;43.512;5.220;2022-09-01T12:10:39;31.18;33.23
65707;SHT31;52423;43.512;5.220;2022-09-01T12:13:09;31.38;32.40
65707;SHT31;52423;43.512;5.220;2022-09-01T12:15:39;31.48;32.04
65707;SHT31;52423;43.512;5.220;2022-09-01T12:18:17;31.30;32.89
65707;SHT31;52423;43.512;5.220;2022-09-01T12:20:44;31.37;33.55
65707;SHT31;52423;43.512;5.220;2022-09-01T12:23:31;31.72;31.00
65707;SHT31;52423;43.512;5.220;2022-09-01T12:26:02;31.57;30.87
65707;SHT31;52423;43.512;5.220;2022-09-01T12:28:31;31.57;30.48
65707;SHT31;52423;43.512;5.220;2022-09-01T12:30:59;31.48;31.13
65707;SHT31;52423;43.512;5.220;2022-09-01T12:33:26;31.55;31.60
65707;SHT31;52423;43.512;5.220;2022-09-01T12:36:28;31.55;30.99
65707;SHT31;52423;43.512;5.220;2022-09-01T12:39:41;31.58;30.48
65707;SHT31;52423;43.512;5.220;2022-09-01T12:41:42;31.62;30.24
65707;SHT31;52423;43.512;5.220;2022-09-01T12:44:28;31.89;29.66
65707;SHT31;52423;43.512;5.220;2022-09-01T12:46:55;31.93;30.60
65707;SHT31;52423;43.512;5.220;2022-09-01T12:49:24;31.97;30.19
65707;SHT31;52423;43.512;5.220;2022-09-01T12:57:45;32.24;29.31
65707;SHT31;52423;43.512;5.220;2022-09-01T13:00:30;32.22;28.98
65707;SHT31;52423;43.512;5.220;2022-09-01T13:08:12;32.33;28.27
65707;SHT31;52423;43.512;5.220;2022-09-01T13:10:43;32.37;27.17
65707;SHT31;52423;43.512;5.220;2022-09-01T13:13:10;32.43;26.56
65707;SHT31;52423;43.512;5.220;2022-09-01T13:15:41;32.37;26.94
65707;SHT31;52423;43.512;5.220;2022-09-01T13:18:07;32.23;27.29
65707;SHT31;52423;43.512;5.220;2022-09-01T13:20:33;32.16;26.97
65707;SHT31;52423;43.512;5.220;2022-09-01T13:22:59;31.99;26.98
65707;SHT31;52423;43.512;5.220;2022-09-01T13:25:25;32.19;27.98
65707;SHT31;52423;43.512;5.220;2022-09-01T13:27:50;32.30;27.54
65707;SHT31;52423;43.512;5.220;2022-09-01T13:30:19;32.16;24.79
65707;SHT31;52423;43.512;5.220;2022-09-01T13:32:46;32.27;25.53
65707;SHT31;52423;43.512;5.220;2022-09-01T13:35:14;32.08;27.40
65707;SHT31;52423;43.512;5.220;2022-09-01T13:37:41;32.23;26.76
65707;SHT31;52423;43.512;5.220;2022-09-01T13:40:07;32.31;25.68
65707;SHT31;52423;43.512;5.220;2022-09-01T13:42:41;32.17;26.06
65707;SHT31;52423;43.512;5.220;2022-09-01T13:45:07;32.43;24.45
65707;SHT31;52423;43.512;5.220;2022-09-01T13:47:32;32.37;24.89
65707;SHT31;52423;43.512;5.220;2022-09-01T13:49:59;32.29;25.47
65707;SHT31;52423;43.512;5.220;2022-09-01T13:52:24;32.34;25.16
65707;SHT31;52423;43.512;5.220;2022-09-01T13:54:50;32.24;25.25
65707;SHT31;52423;43.512;5.220;2022-09-01T13:57:16;32.19;25.54
65707;SHT31;52423;43.512;5.220;2022-09-01T13:59:42;32.53;24.53
65707;SHT31;52423;43.512;5.220;2022-09-01T14:02:09;32.57;24.70
65707;SHT31;52423;43.512;5.220;2022-09-01T14:04:35;32.53;23.97
65707;SHT31;52423;43.512;5.220;2022-09-01T14:07:05;32.41;24.75
65707;SHT31;52423;43.512;5.220;2022-09-01T14:09:36;32.40;25.30
65707;SHT31;52423;43.512;5.220;2022-09-01T14:12:03;32.47;25.04
65707;SHT31;52423;43.512;5.220;2022-09-01T14:14:29;32.47;23.51
65707;SHT31;52423;43.512;5.220;2022-09-01T14:16:57;32.27;23.02
65707;SHT31;52423;43.512;5.220;2022-09-01T14:19:23;32.37;23.85
65707;SHT31;52423;43.512;5.220;2022-09-01T14:21:49;32.44;23.69
65707;SHT31;52423;43.512;5.220;2022-09-01T14:24:15;32.51;23.58
65707;SHT31;52423;43.512;5.220;2022-09-01T14:26:45;32.47;24.60
65707;SHT31;52423;43.512;5.220;2022-09-01T14:29:10;32.53;24.14
65707;SHT31;52423;43.512;5.220;2022-09-01T14:31:36;32.50;24.04
65707;SHT31;52423;43.512;5.220;2022-09-01T14:34:02;32.50;22.60
65707;SHT31;52423;43.512;5.220;2022-09-01T14:36:28;32.34;22.64
65707;SHT31;52423;43.512;5.220;2022-09-01T14:38:54;32.27;23.57
65707;SHT31;52423;43.512;5.220;2022-09-01T14:41:21;32.19;24.18
65707;SHT31;52423;43.512;5.220;2022-09-01T14:43:50;32.27;25.11
65707;SHT31;52423;43.512;5.220;2022-09-01T14:46:17;32.24;24.87
65707;SHT31;52423;43.512;5.220;2022-09-01T14:48:43;32.16;24.93
65707;SHT31;52423;43.512;5.220;2022-09-01T14:51:19;31.97;25.06
65707;SHT31;52423;43.512;5.220;2022-09-01T14:53:47;32.09;24.33
65707;SHT31;52423;43.512;5.220;2022-09-01T14:56:13;32.08;24.78
65707;SHT31;52423;43.512;5.220;2022-09-01T14:58:43;32.08;23.92
65707;SHT31;52423;43.512;5.220;2022-09-01T15:01:12;32.09;24.56
65707;SHT31;52423;43.512;5.220;2022-09-01T15:03:38;32.14;24.19
65707;SHT31;52423;43.512;5.220;2022-09-01T15:06:04;32.09;24.51
65707;SHT31;52423;43.512;5.220;2022-09-01T15:08:29;32.30;23.63
65707;SHT31;52423;43.512;5.220;2022-09-01T15:10:55;32.23;24.05
65707;SHT31;52423;43.512;5.220;2022-09-01T15:13:20;32.08;24.79
65707;SHT31;52423;43.512;5.220;2022-09-01T15:15:46;31.96;25.36
65707;SHT31;52423;43.512;5.220;2022-09-01T15:18:11;31.94;25.17
65707;SHT31;52423;43.512;5.220;2022-09-01T15:20:39;31.92;24.59
65707;SHT31;52423;43.512;5.220;2022-09-01T15:23:22;32.05;24.23
65707;SHT31;52423;43.512;5.220;2022-09-01T15:25:50;31.99;24.41
65707;SHT31;52423;43.512;5.220;2022-09-01T15:28:16;31.94;23.93
65707;SHT31;52423;43.512;5.220;2022-09-01T15:30:42;31.92;24.13
65707;SHT31;52423;43.512;5.220;2022-09-01T15:33:09;31.82;24.25
65707;SHT31;52423;43.512;5.220;2022-09-01T15:35:35;31.83;24.37
65707;SHT31;52423;43.512;5.220;2022-09-01T15:38:00;31.71;25.36
65707;SHT31;52423;43.512;5.220;2022-09-01T15:40:27;31.61;24.68
65707;SHT31;52423;43.512;5.220;2022-09-01T15:42:54;31.51;25.21
65707;SHT31;52423;43.512;5.220;2022-09-01T15:45:21;31.65;24.76
65707;SHT31;52423;43.512;5.220;2022-09-01T15:47:47;31.71;25.33
65707;SHT31;52423;43.512;5.220;2022-09-01T15:50:16;31.68;25.39
65707;SHT31;52423;43.512;5.220;2022-09-01T15:55:21;31.63;25.00
65707;SHT31;52423;43.512;5.220;2022-09-01T15:57:47;31.59;24.58
65707;SHT31;52423;43.512;5.220;2022-09-01T16:00:14;31.49;24.99
65707;SHT31;52423;43.512;5.220;2022-09-01T16:02:40;31.45;24.87
65707;SHT31;52423;43.512;5.220;2022-09-01T16:05:06;31.44;25.07
65707;SHT31;52423;43.512;5.220;2022-09-01T16:07:32;31.39;25.15
65707;SHT31;52423;43.512;5.220;2022-09-01T16:09:57;31.45;24.81
65707;SHT31;52423;43.512;5.220;2022-09-01T16:12:24;31.41;25.09
65707;SHT31;52423;43.512;5.220;2022-09-01T16:14:52;31.41;24.82
65707;SHT31;52423;43.512;5.220;2022-09-01T16:20:26;31.28;25.38
65707;SHT31;52423;43.512;5.220;2022-09-01T16:22:59;31.22;25.16
65707;SHT31;52423;43.512;5.220;2022-09-01T16:25:30;31.21;24.89
65707;SHT31;52423;43.512;5.220;2022-09-01T16:28:01;31.11;25.34
65707;SHT31;52423;43.512;5.220;2022-09-01T16:30:28;31.11;24.77
65707;SHT31;52423;43.512;5.220;2022-09-01T16:32:57;31.04;24.62
65707;SHT31;52423;43.512;5.220;2022-09-01T16:35:33;31.00;24.92
65707;SHT31;52423;43.512;5.220;2022-09-01T16:38:12;31.01;24.48
65707;SHT31;52423;43.512;5.220;2022-09-01T16:40:48;31.01;24.58
65707;SHT31;52423;43.512;5.220;2022-09-01T16:46:11;31.00;25.49
65707;SHT31;52423;43.512;5.220;2022-09-01T16:48:47;30.88;36.01
65707;SHT31;52423;43.512;5.220;2022-09-01T16:51:30;30.69;39.54
65707;SHT31;52423;43.512;5.220;2022-09-01T16:59:49;30.22;42.64
65707;SHT31;52423;43.512;5.220;2022-09-01T17:02:35;30.00;43.09
65707;SHT31;52423;43.512;5.220;2022-09-01T17:10:26;29.70;42.39
65707;SHT31;52423;43.512;5.220;2022-09-01T17:12:54;29.60;42.34
65707;SHT31;52423;43.512;5.220;2022-09-01T17:15:30;29.49;42.11
65707;SHT31;52423;43.512;5.220;2022-09-01T17:20:59;29.30;42.49
65707;SHT31;52423;43.512;5.220;2022-09-01T17:23:29;29.23;42.34
65707;SHT31;52423;43.512;5.220;2022-09-01T17:26:04;29.16;42.87
65707;SHT31;52423;43.512;5.220;2022-09-01T17:28:37;29.04;43.22
65707;SHT31;52423;43.512;5.220;2022-09-01T17:31:17;28.89;43.53
65707;SHT31;52423;43.512;5.220;2022-09-01T17:36:48;28.73;43.88
65707;SHT31;52423;43.512;5.220;2022-09-01T17:41:58;28.58;44.40
65707;SHT31;52423;43.512;5.220;2022-09-01T17:44:50;28.52;44.58
65707;SHT31;52423;43.512;5.220;2022-09-01T17:58:58;28.13;45.86